createdAt,value
2018-08-18T00:00:42.545Z,20.888062
2018-08-18T00:01:59.091Z,20.99884
2018-08-18T00:03:14.979Z,20.928345
2018-08-18T00:04:30.898Z,20.99884
2018-08-18T00:05:46.827Z,20.928345
2018-08-18T00:07:02.749Z,20.978699
2018-08-18T00:08:18.634Z,20.958557
2018-08-18T00:09:34.510Z,21.039124
2018-08-18T00:10:50.450Z,21.099548
2018-08-18T00:12:06.359Z,21.170044
2018-08-18T00:13:22.284Z,21.230469
2018-08-18T00:14:38.177Z,21.149902
2018-08-18T00:15:54.138Z,21.139832
2018-08-18T00:17:10.077Z,20.99884
2018-08-18T00:18:25.965Z,20.948486
2018-08-18T00:19:41.865Z,20.978699
2018-08-18T00:20:57.778Z,20.99884
2018-08-18T00:22:13.720Z,20.958557
2018-08-18T00:23:29.619Z,20.958557
2018-08-18T00:24:45.488Z,20.978699
2018-08-18T00:26:01.403Z,20.877991
2018-08-18T00:27:17.339Z,20.877991
2018-08-18T00:28:33.235Z,21.039124
2018-08-18T00:29:49.157Z,21.129761
2018-08-18T00:31:05.083Z,21.069336
2018-08-18T00:32:21.084Z,20.817566
2018-08-18T00:33:36.960Z,20.767212
2018-08-18T00:34:52.893Z,20.74707
2018-08-18T00:36:08.820Z,20.726929
2018-08-18T00:37:24.734Z,20.656433
2018-08-18T00:38:40.746Z,20.666504
2018-08-18T00:39:56.650Z,20.676575
2018-08-18T00:41:12.571Z,20.596008
2018-08-18T00:42:28.449Z,20.676575
2018-08-18T00:43:44.324Z,20.706787
2018-08-18T00:45:00.938Z,20.696716
2018-08-18T00:46:16.872Z,20.767212
2018-08-18T00:47:32.904Z,20.827637
2018-08-18T00:48:48.797Z,20.817566
2018-08-18T00:50:04.702Z,20.74707
2018-08-18T00:51:20.643Z,20.827637
2018-08-18T00:52:36.539Z,20.877991
2018-08-18T00:53:52.424Z,20.888062
2018-08-18T00:55:08.317Z,20.777283
2018-08-18T00:56:24.265Z,20.817566
2018-08-18T00:57:40.145Z,20.817566
2018-08-18T00:58:56.058Z,20.706787
2018-08-18T01:00:11.907Z,20.74707
2018-08-18T01:01:27.813Z,20.817566
2018-08-18T01:02:43.659Z,20.918274
2018-08-18T01:03:59.551Z,20.948486
2018-08-18T01:05:15.496Z,20.847778
2018-08-18T01:06:31.438Z,20.797424
2018-08-18T01:07:47.318Z,20.74707
2018-08-18T01:09:03.245Z,20.777283
2018-08-18T01:10:19.129Z,20.877991
2018-08-18T01:11:35.433Z,20.958557
2018-08-18T01:12:51.327Z,20.918274
2018-08-18T01:14:07.298Z,20.948486
2018-08-18T01:15:23.039Z,20.827637
2018-08-18T01:16:38.948Z,20.767212
2018-08-18T01:17:54.889Z,20.74707
2018-08-18T01:19:10.786Z,20.767212
2018-08-18T01:20:26.677Z,20.877991
2018-08-18T01:21:42.603Z,20.767212
2018-08-18T01:22:58.490Z,20.817566
2018-08-18T01:24:14.402Z,20.797424
2018-08-18T01:25:30.349Z,20.817566
2018-08-18T01:26:46.246Z,20.696716
2018-08-18T01:28:02.151Z,20.636292
2018-08-18T01:29:18.045Z,20.626221
2018-08-18T01:30:33.946Z,20.797424
2018-08-18T01:31:49.901Z,20.918274
2018-08-18T01:33:05.808Z,20.928345
2018-08-18T01:34:21.692Z,20.857849
2018-08-18T01:35:37.581Z,20.958557
2018-08-18T01:36:53.467Z,20.797424
2018-08-18T01:38:09.369Z,20.726929
2018-08-18T01:39:25.923Z,20.696716
2018-08-18T01:42:21.749Z,20.74707
2018-08-18T01:43:37.615Z,20.726929
2018-08-18T01:44:53.604Z,20.726929
2018-08-18T01:46:11.430Z,20.706787
2018-08-18T01:47:27.315Z,20.767212
2018-08-18T01:48:43.197Z,20.797424
2018-08-18T01:49:59.223Z,20.666504
2018-08-18T01:51:15.114Z,20.696716
2018-08-18T01:52:31.064Z,20.726929
2018-08-18T01:53:46.999Z,20.626221
2018-08-18T01:55:02.904Z,20.575867
2018-08-18T01:56:18.809Z,20.545654
2018-08-18T01:57:34.706Z,20.585938
2018-08-18T01:58:50.597Z,20.636292
2018-08-18T02:00:06.579Z,20.656433
2018-08-18T02:01:22.403Z,20.696716
2018-08-18T02:02:38.288Z,20.656433
2018-08-18T02:03:55.163Z,20.626221
2018-08-18T02:05:11.114Z,20.596008
2018-08-18T02:06:27.004Z,20.596008
2018-08-18T02:07:42.927Z,20.585938
2018-08-18T02:08:58.813Z,20.626221
2018-08-18T02:10:14.767Z,20.74707
2018-08-18T02:11:30.666Z,20.74707
2018-08-18T02:12:46.637Z,20.777283
2018-08-18T02:14:02.524Z,20.706787
2018-08-18T02:15:18.416Z,20.636292
2018-08-18T02:16:34.355Z,20.515442
2018-08-18T02:17:50.268Z,20.485229
2018-08-18T02:19:06.163Z,20.515442
2018-08-18T02:20:22.074Z,20.545654
2018-08-18T02:21:38.004Z,20.596008
2018-08-18T02:22:54.048Z,20.525513
2018-08-18T02:24:09.937Z,20.545654
2018-08-18T02:25:25.877Z,20.626221
2018-08-18T02:26:41.800Z,20.636292
2018-08-18T02:27:57.718Z,20.656433
2018-08-18T02:29:13.676Z,20.666504
2018-08-18T02:30:29.603Z,20.596008
2018-08-18T02:31:45.538Z,20.676575
2018-08-18T02:33:01.437Z,20.636292
2018-08-18T02:34:17.318Z,20.485229
2018-08-18T02:35:33.251Z,20.475159
2018-08-18T02:36:49.138Z,20.596008
2018-08-18T02:38:05.207Z,20.636292
2018-08-18T02:39:21.179Z,20.626221
2018-08-18T02:40:37.090Z,20.4953
2018-08-18T02:41:53.012Z,20.293884
2018-08-18T02:43:08.910Z,20.344238
2018-08-18T02:46:05.641Z,20.515442
2018-08-18T02:47:21.523Z,20.525513
2018-08-18T02:48:37.458Z,20.626221
2018-08-18T02:49:53.389Z,20.596008
2018-08-18T02:51:09.345Z,20.666504
2018-08-18T02:52:25.308Z,20.706787
2018-08-18T02:55:22.074Z,20.515442
2018-08-18T02:56:38.001Z,20.575867
2018-08-18T02:57:53.944Z,20.585938
2018-08-18T02:59:09.913Z,20.334167
2018-08-18T03:00:25.868Z,20.374451
2018-08-18T03:01:41.951Z,20.36438
2018-08-18T03:02:57.811Z,20.334167
2018-08-18T03:04:13.751Z,20.444946
2018-08-18T03:05:29.644Z,20.455017
2018-08-18T03:06:45.598Z,20.4953
2018-08-18T03:08:01.503Z,20.515442
2018-08-18T03:09:17.526Z,20.515442
2018-08-18T03:10:33.420Z,20.525513
2018-08-18T03:11:49.415Z,20.545654
2018-08-18T03:13:05.327Z,20.515442
2018-08-18T03:14:21.320Z,20.525513
2018-08-18T03:15:37.259Z,20.4953
2018-08-18T03:16:53.156Z,20.455017
2018-08-18T03:18:09.072Z,20.344238
2018-08-18T03:19:24.986Z,20.324097
2018-08-18T03:20:40.914Z,20.273743
2018-08-18T03:21:56.839Z,20.24353
2018-08-18T03:23:12.727Z,20.122681
2018-08-18T03:24:28.649Z,20.142822
2018-08-18T03:25:44.532Z,20.223389
2018-08-18T03:27:00.466Z,20.374451
2018-08-18T03:28:16.370Z,20.36438
2018-08-18T03:29:32.365Z,20.303955
2018-08-18T03:30:48.364Z,20.404663
2018-08-18T03:32:04.221Z,20.444946
2018-08-18T03:33:20.146Z,20.293884
2018-08-18T03:34:36.048Z,20.374451
2018-08-18T03:35:51.941Z,20.394592
2018-08-18T03:37:07.872Z,20.424805
2018-08-18T03:38:24.624Z,20.394592
2018-08-18T03:39:40.531Z,20.485229
2018-08-18T03:40:56.490Z,20.424805
2018-08-18T03:42:12.394Z,20.485229
2018-08-18T03:43:28.311Z,20.555725
2018-08-18T03:44:44.210Z,20.485229
2018-08-18T03:46:00.104Z,20.334167
2018-08-18T03:47:16.028Z,20.324097
2018-08-18T03:48:31.952Z,20.36438
2018-08-18T03:49:47.845Z,20.394592
2018-08-18T08:23:51.451Z,22.297974
2018-08-18T08:25:07.332Z,22.146912
2018-08-18T08:26:23.290Z,22.066345
2018-08-18T08:27:39.157Z,22.066345
2018-08-18T08:28:55.095Z,22.136841
2018-08-18T08:30:11.042Z,22.116699
2018-08-18T08:31:27.055Z,22.146912
2018-08-18T08:32:43.006Z,22.136841
2018-08-18T08:33:59.004Z,21.99585
2018-08-18T08:35:14.939Z,22.136841
2018-08-18T08:36:31.407Z,22.036133
2018-08-18T08:37:47.354Z,22.338257
2018-08-18T08:39:03.399Z,22.519531
2018-08-18T08:40:19.317Z,22.700806
2018-08-18T08:41:35.385Z,22.781372
2018-08-18T08:42:51.374Z,22.912292
2018-08-18T08:44:08.256Z,22.861938
2018-08-18T08:45:24.368Z,22.37854
2018-08-18T08:46:40.274Z,22.116699
2018-08-18T08:47:56.415Z,22.207336
2018-08-18T08:49:12.603Z,22.368469
2018-08-18T08:50:28.886Z,22.368469
2018-08-18T08:51:44.890Z,22.297974
2018-08-18T08:53:00.951Z,22.408752
2018-08-18T08:54:17.088Z,22.368469
2018-08-18T08:55:33.019Z,22.519531
2018-08-18T08:56:49.049Z,22.710876
2018-08-18T08:58:05.099Z,22.469177
2018-08-18T08:59:21.066Z,22.328186
2018-08-18T09:00:38.016Z,22.358398
2018-08-18T09:01:54.001Z,22.297974
2018-08-18T09:03:10.064Z,22.459106
2018-08-18T09:04:25.973Z,22.529602
2018-08-18T09:05:41.966Z,22.559814
2018-08-18T09:06:58.555Z,22.801514
2018-08-18T09:08:14.469Z,22.469177
2018-08-18T09:09:30.436Z,22.620239
2018-08-18T09:10:46.381Z,22.892151
2018-08-18T09:12:02.345Z,23.043213
2018-08-18T09:13:18.287Z,23.063354
2018-08-18T09:14:34.323Z,23.214417
2018-08-18T09:15:50.288Z,23.113708
2018-08-18T09:17:06.330Z,23.13385
2018-08-18T09:18:22.267Z,23.013
2018-08-18T09:19:38.250Z,22.892151
2018-08-18T09:20:54.200Z,22.801514
2018-08-18T09:22:10.188Z,22.952576
2018-08-18T09:23:26.210Z,22.992859
2018-08-18T09:24:42.664Z,23.043213
2018-08-18T09:25:58.626Z,23.264771
2018-08-18T09:27:14.582Z,22.982788
2018-08-18T09:28:30.892Z,23.103638
2018-08-18T09:29:48.767Z,23.063354
2018-08-18T09:31:05.178Z,23.073425
2018-08-18T09:32:22.309Z,23.083496
2018-08-18T09:33:38.337Z,23.204346
2018-08-18T09:34:54.273Z,23.184204
2018-08-18T09:36:10.159Z,23.013
2018-08-18T09:37:26.118Z,23.395691
2018-08-18T09:38:42.148Z,23.486328
2018-08-18T09:39:58.113Z,23.335266
2018-08-18T09:41:14.047Z,23.143921
2018-08-18T09:42:30.015Z,23.365479
2018-08-18T09:43:45.969Z,23.234558
2018-08-18T09:45:02.084Z,23.103638
2018-08-18T09:46:18.505Z,23.335266
2018-08-18T09:47:34.626Z,23.234558
2018-08-18T09:48:50.715Z,23.446045
2018-08-18T09:50:06.931Z,23.294983
2018-08-18T09:51:22.974Z,23.284912
2018-08-18T09:52:39.285Z,23.315125
2018-08-18T09:53:55.261Z,23.365479
2018-08-18T09:55:11.284Z,23.395691
2018-08-18T09:56:27.259Z,23.486328
2018-08-18T09:57:43.302Z,23.214417
2018-08-18T09:58:59.326Z,23.113708
2018-08-18T10:00:15.286Z,22.841797
2018-08-18T10:01:31.378Z,23.043213
2018-08-18T10:02:47.384Z,23.103638
2018-08-18T10:04:03.365Z,22.982788
2018-08-18T10:05:19.554Z,22.922363
2018-08-18T10:06:35.507Z,22.982788
2018-08-18T10:07:51.500Z,22.88208
2018-08-18T10:09:07.575Z,22.992859
2018-08-18T10:10:23.539Z,22.962646
2018-08-18T10:11:39.576Z,23.164062
2018-08-18T10:12:57.002Z,23.013
2018-08-18T10:14:12.944Z,23.284912
2018-08-18T10:15:28.957Z,23.143921
2018-08-18T10:16:44.908Z,22.88208
2018-08-18T10:18:00.892Z,22.952576
2018-08-18T10:19:17.857Z,23.365479
2018-08-18T10:20:33.879Z,23.486328
2018-08-18T10:21:49.839Z,23.75824
2018-08-18T10:23:05.881Z,23.63739
2018-08-18T10:24:21.793Z,23.627319
2018-08-18T10:25:37.734Z,23.768311
2018-08-18T10:26:53.834Z,23.848877
2018-08-18T10:28:09.832Z,23.587036
2018-08-18T10:29:25.818Z,23.879089
2018-08-18T10:30:41.736Z,23.707886
2018-08-18T10:31:57.702Z,23.728027
2018-08-18T10:33:13.809Z,23.728027
2018-08-18T10:34:29.768Z,23.63739
2018-08-18T10:35:45.695Z,23.667603
2018-08-18T10:37:01.641Z,23.879089
2018-08-18T10:38:17.587Z,24.100647
2018-08-18T10:39:33.493Z,23.939514
2018-08-18T10:40:49.488Z,23.808594
2018-08-18T10:42:05.459Z,23.687744
2018-08-18T10:43:21.442Z,23.466187
2018-08-18T10:44:37.351Z,23.536682
2018-08-18T10:45:53.252Z,23.697815
2018-08-18T10:47:09.147Z,23.808594
2018-08-18T10:50:05.653Z,23.516541
2018-08-18T10:51:21.547Z,23.516541
2018-08-18T10:52:37.509Z,23.697815
2018-08-18T10:53:53.480Z,23.768311
2018-08-18T10:55:09.425Z,23.838806
2018-08-18T10:56:25.357Z,24.281921
2018-08-18T10:57:41.284Z,24.181213
2018-08-18T10:58:57.221Z,24.191284
2018-08-18T11:00:13.193Z,24.241638
2018-08-18T11:01:30.110Z,24.483337
2018-08-18T11:02:46.190Z,24.634399
2018-08-18T11:04:02.146Z,24.684753
2018-08-18T11:05:18.137Z,24.362488
2018-08-18T11:06:34.051Z,24.100647
2018-08-18T11:07:49.988Z,24.030151
2018-08-18T11:09:05.877Z,24.030151
2018-08-18T11:10:21.826Z,24.110718
2018-08-18T11:11:37.749Z,24.191284
2018-08-18T11:12:53.735Z,24.503479
2018-08-18T11:14:09.644Z,24.855957
2018-08-18T11:15:25.587Z,24.845886
2018-08-18T11:16:41.655Z,24.614258
2018-08-18T11:17:57.563Z,24.342346
2018-08-18T11:19:13.496Z,24.372559
2018-08-18T11:20:29.516Z,24.654541
2018-08-18T11:21:45.644Z,24.51355
2018-08-18T11:23:01.543Z,24.402771
2018-08-18T11:24:17.484Z,24.463196
2018-08-18T11:25:33.414Z,24.76532
2018-08-18T11:26:49.339Z,24.664612
2018-08-18T11:28:05.256Z,24.845886
2018-08-18T11:29:21.205Z,24.815674
2018-08-18T11:30:38.109Z,24.785461
2018-08-18T11:31:55.078Z,24.684753
2018-08-18T11:33:11.055Z,24.473267
2018-08-18T11:34:27.204Z,24.372559
2018-08-18T11:35:43.183Z,24.211426
2018-08-18T11:36:59.217Z,24.181213
2018-08-18T11:38:15.174Z,24.100647
2018-08-18T11:39:31.095Z,24.181213
2018-08-18T11:40:47.078Z,24.51355
2018-08-18T11:42:03.042Z,24.785461
2018-08-18T11:43:19.048Z,24.966736
2018-08-18T11:44:34.956Z,25.158081
2018-08-18T11:45:50.879Z,25.339355
2018-08-18T11:47:06.921Z,25.359497
2018-08-18T11:48:22.839Z,25.359497
2018-08-18T11:49:38.786Z,25.248718
2018-08-18T11:50:54.728Z,25.007019
2018-08-18T11:52:10.803Z,24.876099
2018-08-18T11:53:26.906Z,24.624329
2018-08-18T11:54:42.999Z,24.463196
2018-08-18T11:55:59.064Z,24.533691
2018-08-18T11:57:15.095Z,24.936523
2018-08-18T11:58:31.098Z,24.684753
2018-08-18T12:01:27.952Z,25.158081
2018-08-18T12:02:43.905Z,25.39978
2018-08-18T12:03:59.868Z,25.440063
2018-08-18T12:05:16.605Z,25.631409
2018-08-18T12:06:31.844Z,25.560913
2018-08-18T12:07:47.784Z,25.832825
2018-08-18T12:09:03.850Z,25.852966
2018-08-18T12:10:19.989Z,25.983887
2018-08-18T12:11:35.928Z,26.225586
2018-08-18T12:12:51.859Z,26.185303
2018-08-18T12:14:07.982Z,26.265869
2018-08-18T12:15:24.020Z,26.134949
2018-08-18T12:16:41.877Z,25.963745
2018-08-18T12:17:59.085Z,26.084595
2018-08-18T12:19:15.748Z,25.933533
2018-08-18T12:20:31.993Z,25.963745
2018-08-18T12:21:47.938Z,25.953674
2018-08-18T12:23:04.003Z,25.812683
2018-08-18T12:24:20.053Z,25.923462
2018-08-18T12:25:36.067Z,25.983887
2018-08-18T12:26:52.049Z,25.923462
2018-08-18T12:28:08.016Z,26.104736
2018-08-18T12:29:24.151Z,26.235657
2018-08-18T12:30:40.970Z,26.40686
2018-08-18T12:31:58.187Z,26.215515
2018-08-18T12:33:14.954Z,25.863037
2018-08-18T12:34:31.682Z,26.034241
2018-08-18T12:35:47.686Z,26.064453
2018-08-18T12:37:04.795Z,25.762329
2018-08-18T12:38:20.626Z,25.550842
2018-08-18T12:39:36.573Z,25.611267
2018-08-18T12:40:52.499Z,25.540771
2018-08-18T12:42:08.532Z,25.409851
2018-08-18T12:43:24.483Z,25.490417
2018-08-18T12:44:40.545Z,25.742188
2018-08-18T12:45:56.558Z,25.762329
2018-08-18T12:47:12.505Z,25.923462
2018-08-18T12:48:28.417Z,26.034241
2018-08-18T12:49:44.424Z,26.14502
2018-08-18T12:51:00.270Z,26.326294
2018-08-18T12:52:16.301Z,26.14502
2018-08-18T12:53:32.243Z,25.863037
2018-08-18T12:54:48.113Z,25.923462
2018-08-18T12:56:04.088Z,26.14502
2018-08-18T12:57:19.984Z,25.883179
2018-08-18T12:58:36.116Z,25.983887
2018-08-18T12:59:51.821Z,25.963745
2018-08-18T13:01:07.772Z,25.993958
2018-08-18T13:02:23.748Z,26.084595
2018-08-18T13:03:39.639Z,26.225586
2018-08-18T13:04:55.744Z,26.356506
2018-08-18T13:06:11.675Z,26.52771
2018-08-18T13:07:27.641Z,26.65863
2018-08-18T13:08:44.268Z,26.517639
2018-08-18T13:10:00.199Z,26.336365
2018-08-18T13:11:16.194Z,26.447144
2018-08-18T13:12:32.062Z,26.40686
2018-08-18T13:13:47.969Z,26.255798
2018-08-18T13:15:03.923Z,26.326294
2018-08-18T13:16:19.900Z,26.265869
2018-08-18T13:17:35.859Z,26.084595
2018-08-18T13:18:51.741Z,26.064453
2018-08-18T13:20:07.662Z,26.074524
2018-08-18T13:21:23.801Z,26.386719
2018-08-18T13:22:39.801Z,26.416931
2018-08-18T13:23:55.863Z,26.447144
2018-08-18T13:25:12.509Z,26.668701
2018-08-18T13:26:28.473Z,26.608276
2018-08-18T13:27:44.363Z,26.608276
2018-08-18T13:29:00.292Z,26.739197
2018-08-18T13:30:16.275Z,26.52771
2018-08-18T13:31:32.181Z,26.52771
2018-08-18T13:32:48.128Z,26.708984
2018-08-18T13:34:04.223Z,26.9104
2018-08-18T13:35:20.148Z,27.041321
2018-08-18T13:36:36.077Z,26.809692
2018-08-18T13:37:51.998Z,26.789551
2018-08-18T13:39:07.949Z,26.698914
2018-08-18T13:40:24.059Z,26.829834
2018-08-18T13:41:40.071Z,27.071533
2018-08-18T13:42:55.988Z,27.051392
2018-08-18T13:44:11.997Z,27.101746
2018-08-18T13:45:27.928Z,27.051392
2018-08-18T13:46:44.036Z,27.192383
2018-08-18T13:47:59.927Z,27.232666
2018-08-18T13:49:15.863Z,27.293091
2018-08-18T13:50:31.797Z,27.252808
2018-08-18T13:51:47.706Z,27.474365
2018-08-18T13:53:03.697Z,27.434082
2018-08-18T13:54:19.733Z,27.565002
2018-08-18T13:55:35.802Z,27.726135
2018-08-18T13:56:51.698Z,27.524719
2018-08-18T13:58:07.667Z,26.920471
2018-08-18T13:59:23.566Z,27.051392
2018-08-18T14:00:40.279Z,27.333374
2018-08-18T14:01:56.192Z,27.474365
2018-08-18T14:03:12.217Z,27.333374
2018-08-18T14:04:28.138Z,26.920471
2018-08-18T14:05:44.138Z,26.890259
2018-08-18T14:07:00.087Z,26.960754
2018-08-18T14:08:16.056Z,27.071533
2018-08-18T14:09:32.186Z,27.222595
2018-08-18T14:10:48.098Z,27.03125
2018-08-18T14:12:04.064Z,26.860046
2018-08-18T14:13:19.981Z,26.628418
2018-08-18T14:14:35.865Z,26.829834
2018-08-18T14:15:51.807Z,27.222595
2018-08-18T14:17:07.747Z,27.343445
2018-08-18T14:18:23.790Z,27.333374
2018-08-18T14:19:39.839Z,27.605286
2018-08-18T14:20:55.794Z,27.877197
2018-08-18T14:22:11.724Z,27.977905
2018-08-18T14:23:28.407Z,28.078613
2018-08-18T14:24:44.344Z,27.826843
2018-08-18T14:26:00.256Z,27.595215
2018-08-18T14:27:16.173Z,27.595215
2018-08-18T14:28:32.188Z,27.484436
2018-08-18T14:29:48.011Z,27.41394
2018-08-18T14:31:04.676Z,27.504578
2018-08-18T14:32:20.793Z,27.625427
2018-08-18T14:33:36.729Z,27.826843
2018-08-18T14:34:52.881Z,27.877197
2018-08-18T14:36:08.766Z,27.947693
2018-08-18T14:37:24.712Z,27.846985
2018-08-18T14:38:40.625Z,27.877197
2018-08-18T14:39:56.624Z,27.816772
2018-08-18T14:41:12.565Z,27.826843
2018-08-18T14:42:28.489Z,27.675781
2018-08-18T14:43:44.385Z,27.776489
2018-08-18T14:45:00.310Z,27.877197
2018-08-18T14:46:16.238Z,27.857056
2018-08-18T14:47:32.152Z,27.756348
2018-08-18T14:48:48.095Z,27.857056
2018-08-18T14:50:04.036Z,27.65564
2018-08-18T14:51:19.960Z,27.565002
2018-08-18T14:52:35.836Z,27.575073
2018-08-18T14:53:51.873Z,27.816772
2018-08-18T14:55:07.930Z,27.605286
2018-08-18T14:56:23.869Z,27.504578
2018-08-18T14:57:39.791Z,27.857056
2018-08-18T14:58:55.762Z,27.675781
2018-08-18T15:00:11.650Z,27.846985
2018-08-18T15:01:27.535Z,27.846985
2018-08-18T15:02:43.442Z,27.746277
2018-08-18T15:03:59.354Z,27.444153
2018-08-18T15:05:15.302Z,27.554932
2018-08-18T15:06:31.202Z,27.65564
2018-08-18T15:07:47.113Z,27.806702
2018-08-18T15:09:03.040Z,27.66571
2018-08-18T15:10:18.964Z,27.625427
2018-08-18T15:11:34.876Z,27.967834
2018-08-18T15:12:50.795Z,27.927551
2018-08-18T15:14:06.689Z,27.756348
2018-08-18T15:15:22.706Z,27.78656
2018-08-18T15:16:38.603Z,27.816772
2018-08-18T15:17:54.508Z,27.605286
2018-08-18T15:19:10.371Z,27.53479
2018-08-18T15:20:26.276Z,27.716064
2018-08-18T15:21:42.219Z,27.605286
2018-08-18T15:22:58.122Z,27.434082
2018-08-18T15:24:14.040Z,27.252808
2018-08-18T15:25:29.979Z,27.333374
2018-08-18T15:26:45.936Z,27.232666
2018-08-18T15:28:01.881Z,27.222595
2018-08-18T15:29:17.817Z,27.565002
2018-08-18T15:30:33.724Z,27.746277
2018-08-18T15:31:49.728Z,27.705994
2018-08-18T15:33:05.749Z,27.716064
2018-08-18T15:34:21.706Z,27.716064
2018-08-18T15:35:37.616Z,27.65564
2018-08-18T15:36:53.557Z,27.554932
2018-08-18T15:38:09.538Z,27.373657
2018-08-18T15:39:25.540Z,27.293091
2018-08-18T15:42:21.871Z,27.605286
2018-08-18T15:43:38.048Z,27.776489
2018-08-18T15:44:53.978Z,27.806702
2018-08-18T15:46:09.949Z,27.726135
2018-08-18T15:47:25.859Z,27.756348
2018-08-18T15:48:41.795Z,27.826843
2018-08-18T15:49:57.842Z,27.816772
2018-08-18T15:51:13.751Z,27.726135
2018-08-18T15:52:29.663Z,27.806702
2018-08-18T15:53:45.592Z,27.947693
2018-08-18T15:55:01.496Z,27.967834
2018-08-18T15:56:17.419Z,27.897339
2018-08-18T15:57:33.301Z,28.028259
2018-08-18T15:58:49.267Z,28.058472
2018-08-18T16:00:05.172Z,28.03833
2018-08-18T16:01:21.052Z,27.977905
2018-08-18T16:02:36.940Z,27.927551
2018-08-18T16:03:52.831Z,27.877197
2018-08-18T16:05:08.751Z,28.028259
2018-08-18T16:06:24.655Z,28.118896
2018-08-18T16:07:40.555Z,27.927551
2018-08-18T16:08:56.450Z,27.846985
2018-08-18T16:10:12.442Z,27.846985
2018-08-18T16:11:28.348Z,27.776489
2018-08-18T16:12:44.280Z,27.826843
2018-08-18T16:14:00.172Z,27.90741
2018-08-18T16:15:16.122Z,27.756348
2018-08-18T16:16:32.066Z,27.846985
2018-08-18T16:17:47.979Z,27.857056
2018-08-18T16:19:03.889Z,27.726135
2018-08-18T16:20:19.785Z,27.716064
2018-08-18T16:21:35.703Z,27.816772
2018-08-18T16:22:51.594Z,27.816772
2018-08-18T16:24:07.546Z,27.675781
2018-08-18T16:25:23.443Z,27.857056
2018-08-18T16:26:39.337Z,27.756348
2018-08-18T16:27:55.269Z,27.635498
2018-08-18T16:29:11.179Z,27.66571
2018-08-18T16:30:27.092Z,27.524719
2018-08-18T16:31:43.246Z,27.504578
2018-08-18T16:32:59.155Z,27.575073
2018-08-18T16:34:15.155Z,27.625427
2018-08-18T16:35:31.000Z,27.605286
2018-08-18T16:36:46.924Z,27.383728
2018-08-18T16:38:02.812Z,27.474365
2018-08-18T16:39:18.748Z,27.605286
2018-08-18T16:40:34.671Z,27.595215
2018-08-18T16:41:50.623Z,27.65564
2018-08-18T16:43:06.543Z,27.635498
2018-08-18T16:44:22.469Z,27.53479
2018-08-18T16:45:38.359Z,27.53479
2018-08-18T16:46:54.282Z,27.434082
2018-08-18T16:48:10.159Z,27.484436
2018-08-18T16:49:26.069Z,27.554932
2018-08-18T16:50:42.014Z,27.524719
2018-08-18T16:51:58.963Z,27.504578
2018-08-18T16:53:14.850Z,27.454224
2018-08-18T16:54:30.862Z,27.434082
2018-08-18T16:55:46.990Z,27.53479
2018-08-18T16:57:02.929Z,27.504578
2018-08-18T16:58:18.919Z,27.565002
2018-08-18T16:59:34.881Z,27.565002
2018-08-18T17:00:50.845Z,27.554932
2018-08-18T17:02:06.780Z,27.262878
2018-08-18T17:03:22.693Z,27.131958
2018-08-18T17:04:38.579Z,27.001038
2018-08-18T17:05:54.466Z,27.041321
2018-08-18T17:07:10.410Z,27.131958
2018-08-18T17:08:26.309Z,27.1521
2018-08-18T17:09:42.220Z,27.081604
2018-08-18T17:10:58.131Z,27.16217
2018-08-18T17:12:14.108Z,27.081604
2018-08-18T17:13:30.059Z,26.960754
2018-08-18T17:14:46.082Z,26.960754
2018-08-18T17:16:02.012Z,26.970825
2018-08-18T17:17:17.939Z,26.970825
2018-08-18T17:18:34.072Z,26.9104
2018-08-18T17:19:49.994Z,26.809692
2018-08-18T17:21:05.929Z,26.819763
2018-08-18T17:22:21.865Z,26.638489
2018-08-18T17:23:37.885Z,26.52771
2018-08-18T17:24:53.790Z,26.52771
2018-08-18T17:26:09.722Z,26.608276
2018-08-18T17:27:25.650Z,26.638489
2018-08-18T17:28:41.583Z,26.678772
2018-08-18T17:29:57.502Z,26.678772
2018-08-18T17:31:13.456Z,26.668701
2018-08-18T17:32:29.345Z,26.628418
2018-08-18T17:33:45.268Z,26.598206
2018-08-18T17:35:01.226Z,26.638489
2018-08-18T17:36:17.167Z,26.628418
2018-08-18T17:37:33.091Z,26.588135
2018-08-18T17:38:49.013Z,26.608276
2018-08-18T17:40:04.959Z,26.608276
2018-08-18T17:41:20.893Z,26.628418
2018-08-18T17:42:36.829Z,26.52771
2018-08-18T17:43:52.756Z,26.52771
2018-08-18T17:45:08.690Z,26.507568
2018-08-18T17:46:24.608Z,26.487427
2018-08-18T17:47:40.489Z,26.447144
2018-08-18T17:48:56.382Z,26.457214
2018-08-18T17:50:12.351Z,26.507568
2018-08-18T17:51:28.366Z,26.507568
2018-08-18T17:52:44.240Z,26.457214
2018-08-18T17:54:00.182Z,26.457214
2018-08-18T17:55:16.142Z,26.447144
2018-08-18T17:56:32.079Z,26.477356
2018-08-18T17:57:48.676Z,26.416931
2018-08-18T17:59:04.780Z,26.40686
2018-08-18T18:00:20.693Z,26.326294
2018-08-18T18:01:36.460Z,26.366577
2018-08-18T18:02:52.373Z,26.336365
2018-08-18T18:04:08.325Z,26.286011
2018-08-18T18:05:24.287Z,26.255798
2018-08-18T18:06:40.143Z,26.265869
2018-08-18T18:07:56.013Z,26.296082
2018-08-18T18:09:11.957Z,26.306152
2018-08-18T18:10:27.947Z,26.265869
2018-08-18T18:11:44.042Z,26.286011
2018-08-18T18:12:59.953Z,26.306152
2018-08-18T18:14:15.842Z,26.326294
2018-08-18T18:15:31.740Z,26.356506
2018-08-18T18:16:47.722Z,26.457214
2018-08-18T18:18:03.714Z,26.40686
2018-08-18T18:19:19.742Z,26.286011
2018-08-18T18:20:35.884Z,26.215515
2018-08-18T18:21:51.972Z,26.225586
2018-08-18T18:23:07.922Z,26.215515
2018-08-18T18:24:23.871Z,26.215515
2018-08-18T18:25:39.743Z,26.215515
2018-08-18T18:26:55.664Z,26.175232
2018-08-18T18:28:11.659Z,26.14502
2018-08-18T18:29:27.567Z,26.084595
2018-08-18T18:30:43.452Z,26.104736
2018-08-18T18:31:59.652Z,26.074524
2018-08-18T18:33:15.542Z,26.044312
2018-08-18T18:34:32.188Z,26.064453
2018-08-18T18:35:48.147Z,26.104736
2018-08-18T18:37:04.043Z,26.104736
2018-08-18T18:38:19.930Z,26.044312
2018-08-18T18:39:35.940Z,26.044312
2018-08-18T18:40:51.858Z,25.963745
2018-08-18T18:42:07.872Z,25.953674
2018-08-18T18:43:23.794Z,25.933533
2018-08-18T18:44:39.914Z,25.913391
2018-08-18T18:45:55.863Z,25.913391
2018-08-18T18:47:11.752Z,25.863037
2018-08-18T18:48:27.808Z,25.883179
2018-08-18T18:49:44.295Z,25.89325
2018-08-18T18:51:00.217Z,25.863037
2018-08-18T18:52:16.157Z,25.89325
2018-08-18T18:53:32.181Z,25.863037
2018-08-18T18:54:48.097Z,25.883179
2018-08-18T18:56:03.993Z,25.883179
2018-08-18T18:57:19.946Z,25.832825
2018-08-18T18:58:36.138Z,25.631409
2018-08-18T18:59:52.046Z,25.490417
2018-08-18T19:01:08.096Z,25.389709
2018-08-18T19:02:23.947Z,25.389709
2018-08-18T19:03:39.915Z,25.309143
2018-08-18T19:04:55.796Z,25.258789
2018-08-18T19:06:11.715Z,25.14801
2018-08-18T19:07:27.629Z,25.067444
2018-08-18T19:08:43.554Z,24.926453
2018-08-18T19:09:59.686Z,25.007019
2018-08-18T19:11:15.509Z,24.966736
2018-08-18T19:12:31.591Z,24.986877